sensor_id;sensor_type;location;lat;lon;timestamp;pressure;altitude;pressure_sealevel;temperature;humidity
71194;BME280;58903;47.210;8.618;2023-07-02T00:00:19;93883.91;;;29.47;38.93
71194;BME280;58903;47.210;8.618;2023-07-02T00:02:45;93881.13;;;29.47;39.14
71194;BME280;58903;47.210;8.618;2023-07-02T00:05:20;93882.03;;;29.49;39.40
71194;BME280;58903;47.210;8.618;2023-07-02T00:07:46;93889.44;;;29.47;38.51
71194;BME280;58903;47.210;8.618;2023-07-02T00:10:14;93888.13;;;29.48;38.62
71194;BME280;58903;47.210;8.618;2023-07-02T00:12:41;93885.56;;;29.50;38.26
71194;BME280;58903;47.210;8.618;2023-07-02T00:15:11;93886.84;;;29.49;38.90
71194;BME280;58903;47.210;8.618;2023-07-02T00:17:42;93872.63;;;29.45;38.81
71194;BME280;58903;47.210;8.618;2023-07-02T00:20:20;93882.78;;;29.42;38.98
71194;BME280;58903;47.210;8.618;2023-07-02T00:22:48;93877.22;;;29.42;38.48
71194;BME280;58903;47.210;8.618;2023-07-02T00:25:16;93874.66;;;29.44;39.04
71194;BME280;58903;47.210;8.618;2023-07-02T00:27:46;93876.84;;;29.46;38.28
71194;BME280;58903;47.210;8.618;2023-07-02T00:30:27;93868.91;;;29.42;38.35
71194;BME280;58903;47.210;8.618;2023-07-02T00:32:57;93869.84;;;29.45;38.79
71194;BME280;58903;47.210;8.618;2023-07-02T00:35:41;93866.34;;;29.44;38.96
71194;BME280;58903;47.210;8.618;2023-07-02T00:38:07;93867.63;;;29.43;38.43
71194;BME280;58903;47.210;8.618;2023-07-02T00:41:11;93864.09;;;29.43;39.26
71194;BME280;58903;47.210;8.618;2023-07-02T00:43:41;93863.91;;;29.41;39.04
71194;BME280;58903;47.210;8.618;2023-07-02T00:46:19;93861.31;;;29.43;38.52
71194;BME280;58903;47.210;8.618;2023-07-02T00:48:50;93865.41;;;29.42;38.15
71194;BME280;58903;47.210;8.618;2023-07-02T00:51:27;93859.47;;;29.38;38.54
71194;BME280;58903;47.210;8.618;2023-07-02T00:54:04;93867.03;;;29.37;37.99
71194;BME280;58903;47.210;8.618;2023-07-02T00:56:31;93871.09;;;29.36;39.23
71194;BME280;58903;47.210;8.618;2023-07-02T00:58:57;93859.09;;;29.34;38.61
71194;BME280;58903;47.210;8.618;2023-07-02T01:01:26;93865.16;;;29.32;38.73
71194;BME280;58903;47.210;8.618;2023-07-02T01:06:31;93865.72;;;29.31;39.23
71194;BME280;58903;47.210;8.618;2023-07-02T01:09:07;93864.44;;;29.32;38.10
71194;BME280;58903;47.210;8.618;2023-07-02T01:14:44;93869.06;;;29.29;38.89
71194;BME280;58903;47.210;8.618;2023-07-02T01:17:30;93868.50;;;29.31;38.49
71194;BME280;58903;47.210;8.618;2023-07-02T01:20:09;93868.31;;;29.29;38.92
71194;BME280;58903;47.210;8.618;2023-07-02T01:22:39;93861.28;;;29.28;38.28
71194;BME280;58903;47.210;8.618;2023-07-02T01:25:06;93865.34;;;29.27;38.68
71194;BME280;58903;47.210;8.618;2023-07-02T01:27:36;93873.66;;;29.27;38.77
71194;BME280;58903;47.210;8.618;2023-07-02T01:30:03;93864.22;;;29.22;38.63
71194;BME280;58903;47.210;8.618;2023-07-02T01:32:43;93871.97;;;29.24;37.84
71194;BME280;58903;47.210;8.618;2023-07-02T01:35:11;93877.50;;;29.24;38.42
71194;BME280;58903;47.210;8.618;2023-07-02T01:37:38;93894.13;;;29.24;38.93
71194;BME280;58903;47.210;8.618;2023-07-02T01:40:04;93900.41;;;29.24;39.07
71194;BME280;58903;47.210;8.618;2023-07-02T01:42:36;93903.38;;;29.26;39.22
71194;BME280;58903;47.210;8.618;2023-07-02T01:45:05;93904.47;;;29.23;38.82
71194;BME280;58903;47.210;8.618;2023-07-02T01:47:32;93900.41;;;29.24;38.66
71194;BME280;58903;47.210;8.618;2023-07-02T01:49:59;93911.50;;;29.24;38.83
71194;BME280;58903;47.210;8.618;2023-07-02T01:52:27;93910.75;;;29.24;38.17
71194;BME280;58903;47.210;8.618;2023-07-02T01:54:55;93903.75;;;29.23;38.88
71194;BME280;58903;47.210;8.618;2023-07-02T01:57:22;93910.75;;;29.24;38.81
71194;BME280;58903;47.210;8.618;2023-07-02T01:59:54;93911.66;;;29.19;38.95
71194;BME280;58903;47.210;8.618;2023-07-02T02:02:29;93913.31;;;29.22;38.91
71194;BME280;58903;47.210;8.618;2023-07-02T02:05:07;93914.06;;;29.22;38.65
71194;BME280;58903;47.210;8.618;2023-07-02T02:07:37;93917.41;;;29.21;38.61
71194;BME280;58903;47.210;8.618;2023-07-02T02:10:06;93914.81;;;29.23;38.17
71194;BME280;58903;47.210;8.618;2023-07-02T02:12:32;93920.69;;;29.19;38.59
71194;BME280;58903;47.210;8.618;2023-07-02T02:15:03;93926.97;;;29.20;38.31
71194;BME280;58903;47.210;8.618;2023-07-02T02:17:29;93924.75;;;29.18;38.41
71194;BME280;58903;47.210;8.618;2023-07-02T02:20:08;93923.25;;;29.17;38.97
71194;BME280;58903;47.210;8.618;2023-07-02T02:22:47;93930.31;;;29.18;38.69
71194;BME280;58903;47.210;8.618;2023-07-02T02:25:32;93921.44;;;29.20;38.76
71194;BME280;58903;47.210;8.618;2023-07-02T02:28:31;93922.19;;;29.20;38.68
71194;BME280;58903;47.210;8.618;2023-07-02T02:30:57;93931.25;;;29.21;38.43
71194;BME280;58903;47.210;8.618;2023-07-02T02:36:38;93936.78;;;29.21;38.47
71194;BME280;58903;47.210;8.618;2023-07-02T02:39:06;93949.13;;;29.20;37.97
71194;BME280;58903;47.210;8.618;2023-07-02T02:41:35;93947.66;;;29.19;38.90
71194;BME280;58903;47.210;8.618;2023-07-02T02:44:01;93941.69;;;29.15;38.43
71194;BME280;58903;47.210;8.618;2023-07-02T02:46:35;93941.69;;;29.15;38.19
71194;BME280;58903;47.210;8.618;2023-07-02T02:49:01;93938.19;;;29.14;38.50
71194;BME280;58903;47.210;8.618;2023-07-02T02:51:27;93945.19;;;29.15;38.95
71194;BME280;58903;47.210;8.618;2023-07-02T02:54:01;93949.06;;;29.12;38.54
71194;BME280;58903;47.210;8.618;2023-07-02T02:56:42;93940.97;;;29.14;38.94
71194;BME280;58903;47.210;8.618;2023-07-02T02:59:12;93943.97;;;29.16;38.28
71194;BME280;58903;47.210;8.618;2023-07-02T03:01:52;93949.69;;;29.18;38.42
71194;BME280;58903;47.210;8.618;2023-07-02T03:04:51;93954.69;;;29.20;38.76
71194;BME280;58903;47.210;8.618;2023-07-02T03:07:25;93954.69;;;29.20;39.02
71194;BME280;58903;47.210;8.618;2023-07-02T03:09:51;93950.63;;;29.21;37.92
71194;BME280;58903;47.210;8.618;2023-07-02T03:12:17;93954.13;;;29.21;38.68
71194;BME280;58903;47.210;8.618;2023-07-02T03:14:50;93959.13;;;29.23;38.18
71194;BME280;58903;47.210;8.618;2023-07-02T03:17:20;93953.59;;;29.23;37.66
71194;BME280;58903;47.210;8.618;2023-07-02T03:19:57;93959.13;;;29.23;38.10
71194;BME280;58903;47.210;8.618;2023-07-02T03:22:23;93957.63;;;29.22;38.38
71194;BME280;58903;47.210;8.618;2023-07-02T03:24:49;93955.06;;;29.24;38.53
71194;BME280;58903;47.210;8.618;2023-07-02T03:27:29;93959.13;;;29.23;38.29
71194;BME280;58903;47.210;8.618;2023-07-02T03:30:35;93955.63;;;29.22;38.67
71194;BME280;58903;47.210;8.618;2023-07-02T03:33:32;93954.88;;;29.22;37.80
71194;BME280;58903;47.210;8.618;2023-07-02T03:36:00;93952.84;;;29.22;38.75
71194;BME280;58903;47.210;8.618;2023-07-02T03:38:58;93960.59;;;29.24;38.71
71194;BME280;58903;47.210;8.618;2023-07-02T03:41:44;93965.63;;;29.25;37.83
71194;BME280;58903;47.210;8.618;2023-07-02T03:44:21;93968.72;;;29.22;37.93
71194;BME280;58903;47.210;8.618;2023-07-02T03:46:51;93970.03;;;29.21;38.04
71194;BME280;58903;47.210;8.618;2023-07-02T03:49:21;93974.06;;;29.20;37.63
71194;BME280;58903;47.210;8.618;2023-07-02T03:51:47;93976.84;;;29.20;38.34
71194;BME280;58903;47.210;8.618;2023-07-02T03:54:22;93976.84;;;29.20;38.36
71194;BME280;58903;47.210;8.618;2023-07-02T03:56:58;93981.09;;;29.21;38.43
71194;BME280;58903;47.210;8.618;2023-07-02T03:59:25;93987.91;;;29.20;38.40
71194;BME280;58903;47.210;8.618;2023-07-02T04:02:04;93981.63;;;29.19;37.96
71194;BME280;58903;47.210;8.618;2023-07-02T04:04:30;93986.44;;;29.19;37.57
71194;BME280;58903;47.210;8.618;2023-07-02T04:07:11;93985.69;;;29.18;37.98
71194;BME280;58903;47.210;8.618;2023-07-02T04:09:37;93985.13;;;29.20;38.10
71194;BME280;58903;47.210;8.618;2023-07-02T04:12:10;93991.97;;;29.19;37.43
71194;BME280;58903;47.210;8.618;2023-07-02T04:14:40;93986.25;;;29.17;37.88
71194;BME280;58903;47.210;8.618;2023-07-02T04:17:11;93988.75;;;29.15;38.27
71194;BME280;58903;47.210;8.618;2023-07-02T04:19:37;93985.28;;;29.14;37.44
71194;BME280;58903;47.210;8.618;2023-07-02T04:22:03;93986.00;;;29.15;38.20
71194;BME280;58903;47.210;8.618;2023-07-02T04:24:29;93999.34;;;29.16;38.08
71194;BME280;58903;47.210;8.618;2023-07-02T04:27:00;93993.81;;;29.16;37.93
71194;BME280;58903;47.210;8.618;2023-07-02T04:29:28;93997.31;;;29.17;37.95
71194;BME280;58903;47.210;8.618;2023-07-02T04:31:56;93991.78;;;29.17;38.36
71194;BME280;58903;47.210;8.618;2023-07-02T04:34:26;94001.16;;;29.14;38.23
71194;BME280;58903;47.210;8.618;2023-07-02T04:37:09;94000.59;;;29.15;37.64
71194;BME280;58903;47.210;8.618;2023-07-02T04:39:41;94001.56;;;29.18;37.99
71194;BME280;58903;47.210;8.618;2023-07-02T04:42:24;93992.50;;;29.17;37.72
71194;BME280;58903;47.210;8.618;2023-07-02T04:44:57;93996.56;;;29.16;37.60
71194;BME280;58903;47.210;8.618;2023-07-02T04:47:39;93987.72;;;29.18;38.51
71194;BME280;58903;47.210;8.618;2023-07-02T04:50:26;94003.91;;;29.14;38.42
71194;BME280;58903;47.210;8.618;2023-07-02T04:53:17;94000.09;;;29.17;37.80
71194;BME280;58903;47.210;8.618;2023-07-02T04:55:56;93997.06;;;29.15;38.44
71194;BME280;58903;47.210;8.618;2023-07-02T04:58:37;94000.41;;;29.13;38.54
71194;BME280;58903;47.210;8.618;2023-07-02T05:01:05;94002.41;;;29.13;38.07
71194;BME280;58903;47.210;8.618;2023-07-02T05:03:32;94010.72;;;29.13;38.21
71194;BME280;58903;47.210;8.618;2023-07-02T05:06:05;94000.19;;;29.11;37.73
71194;BME280;58903;47.210;8.618;2023-07-02T05:08:37;94010.19;;;29.14;38.35
71194;BME280;58903;47.210;8.618;2023-07-02T05:11:28;94010.19;;;29.14;37.98
71194;BME280;58903;47.210;8.618;2023-07-02T05:14:30;94009.66;;;29.16;37.48
71194;BME280;58903;47.210;8.618;2023-07-02T05:17:05;94009.66;;;29.16;37.85
71194;BME280;58903;47.210;8.618;2023-07-02T05:19:44;94008.91;;;29.15;37.96
71194;BME280;58903;47.210;8.618;2023-07-02T05:22:18;94005.94;;;29.13;37.96
71194;BME280;58903;47.210;8.618;2023-07-02T05:24:46;94007.44;;;29.14;38.04
71194;BME280;58903;47.210;8.618;2023-07-02T05:27:31;94019.78;;;29.13;37.60
71194;BME280;58903;47.210;8.618;2023-07-02T05:30:27;94013.50;;;29.13;38.21
71194;BME280;58903;47.210;8.618;2023-07-02T05:33:31;94021.09;;;29.12;38.55
71194;BME280;58903;47.210;8.618;2023-07-02T05:36:14;94025.88;;;29.12;37.76
71194;BME280;58903;47.210;8.618;2023-07-02T05:38:40;94021.41;;;29.08;37.87
71194;BME280;58903;47.210;8.618;2023-07-02T05:41:33;94025.88;;;29.12;38.09
71194;BME280;58903;47.210;8.618;2023-07-02T05:44:04;94031.41;;;29.12;38.13
71194;BME280;58903;47.210;8.618;2023-07-02T05:46:39;94025.13;;;29.11;37.62
71194;BME280;58903;47.210;8.618;2023-07-02T05:49:06;94025.88;;;29.12;38.61
71194;BME280;58903;47.210;8.618;2023-07-02T05:51:43;94030.13;;;29.13;38.61
71194;BME280;58903;47.210;8.618;2023-07-02T05:54:30;94029.59;;;29.14;38.82
71194;BME280;58903;47.210;8.618;2023-07-02T05:56:56;94030.88;;;29.13;37.64
71194;BME280;58903;47.210;8.618;2023-07-02T05:59:21;94023.09;;;29.12;38.21
71194;BME280;58903;47.210;8.618;2023-07-02T06:01:47;94030.66;;;29.11;37.94
71194;BME280;58903;47.210;8.618;2023-07-02T06:04:13;94038.41;;;29.13;38.19
71194;BME280;58903;47.210;8.618;2023-07-02T06:06:42;94039.38;;;29.15;38.30
71194;BME280;58903;47.210;8.618;2023-07-02T06:09:08;94038.63;;;29.15;38.47
71194;BME280;58903;47.210;8.618;2023-07-02T06:11:34;94038.88;;;29.17;37.98
71194;BME280;58903;47.210;8.618;2023-07-02T06:14:00;94039.91;;;29.14;38.67
71194;BME280;58903;47.210;8.618;2023-07-02T06:16:27;94041.94;;;29.13;38.76
71194;BME280;58903;47.210;8.618;2023-07-02T06:18:53;94047.47;;;29.13;38.29
71194;BME280;58903;47.210;8.618;2023-07-02T06:21:19;94050.06;;;29.11;37.81
71194;BME280;58903;47.210;8.618;2023-07-02T06:23:53;94056.34;;;29.12;38.03
71194;BME280;58903;47.210;8.618;2023-07-02T06:26:21;94054.31;;;29.12;38.32
71194;BME280;58903;47.210;8.618;2023-07-02T06:28:53;94055.03;;;29.13;38.36
71194;BME280;58903;47.210;8.618;2023-07-02T06:31:52;94062.44;;;29.10;38.08
71194;BME280;58903;47.210;8.618;2023-07-02T06:34:39;94067.22;;;29.09;38.39
71194;BME280;58903;47.210;8.618;2023-07-02T06:37:34;94066.47;;;29.09;39.38
71194;BME280;58903;47.210;8.618;2023-07-02T06:40:00;94071.25;;;29.08;38.29
71194;BME280;58903;47.210;8.618;2023-07-02T06:42:41;94067.97;;;29.10;38.62
71194;BME280;58903;47.210;8.618;2023-07-02T06:45:07;94071.25;;;29.08;38.53
71194;BME280;58903;47.210;8.618;2023-07-02T06:47:44;94083.47;;;29.13;38.99
71194;BME280;58903;47.210;8.618;2023-07-02T06:50:25;94077.75;;;29.11;38.08
71194;BME280;58903;47.210;8.618;2023-07-02T06:52:51;94075.38;;;29.15;39.16
71194;BME280;58903;47.210;8.618;2023-07-02T06:55:30;94072.41;;;29.13;38.93
71194;BME280;58903;47.210;8.618;2023-07-02T06:57:58;94079.44;;;29.14;39.21
71194;BME280;58903;47.210;8.618;2023-07-02T07:00:25;94081.66;;;29.16;38.45
71194;BME280;58903;47.210;8.618;2023-07-02T07:02:51;94081.47;;;29.14;38.77
71194;BME280;58903;47.210;8.618;2023-07-02T07:05:17;94080.16;;;29.15;38.49
71194;BME280;58903;47.210;8.618;2023-07-02T07:07:45;94080.91;;;29.15;38.43
71194;BME280;58903;47.210;8.618;2023-07-02T07:10:11;94073.91;;;29.14;38.46
71194;BME280;58903;47.210;8.618;2023-07-02T07:12:37;94083.19;;;29.17;38.71
71194;BME280;58903;47.210;8.618;2023-07-02T07:15:08;94074.22;;;29.10;38.54
71194;BME280;58903;47.210;8.618;2023-07-02T07:17:41;94075.38;;;29.15;38.99
71194;BME280;58903;47.210;8.618;2023-07-02T07:20:19;94078.50;;;29.12;38.93
71194;BME280;58903;47.210;8.618;2023-07-02T07:22:57;94076.66;;;29.14;38.67
71194;BME280;58903;47.210;8.618;2023-07-02T07:25:25;94078.38;;;29.17;38.65
71194;BME280;58903;47.210;8.618;2023-07-02T07:27:51;94083.38;;;29.19;38.84
71194;BME280;58903;47.210;8.618;2023-07-02T07:30:26;94081.13;;;29.17;38.95
71194;BME280;58903;47.210;8.618;2023-07-02T07:32:52;94081.66;;;29.16;38.90
71194;BME280;58903;47.210;8.618;2023-07-02T07:35:28;94075.91;;;29.14;38.23
71194;BME280;58903;47.210;8.618;2023-07-02T07:37:58;94080.41;;;29.17;38.65
71194;BME280;58903;47.210;8.618;2023-07-02T07:40:26;94080.41;;;29.17;38.37
71194;BME280;58903;47.210;8.618;2023-07-02T07:42:56;94081.66;;;29.16;38.26
71194;BME280;58903;47.210;8.618;2023-07-02T07:45:35;94085.97;;;29.17;38.04
71194;BME280;58903;47.210;8.618;2023-07-02T07:48:05;94087.19;;;29.16;38.53
71194;BME280;58903;47.210;8.618;2023-07-02T07:50:32;94081.88;;;29.18;38.37
71194;BME280;58903;47.210;8.618;2023-07-02T07:52:58;94084.66;;;29.18;38.06
71194;BME280;58903;47.210;8.618;2023-07-02T07:55:26;94076.91;;;29.16;38.57
71194;BME280;58903;47.210;8.618;2023-07-02T07:57:55;94073.34;;;29.16;38.65
71194;BME280;58903;47.210;8.618;2023-07-02T08:00:23;94084.66;;;29.18;38.47
71194;BME280;58903;47.210;8.618;2023-07-02T08:03:00;94078.88;;;29.16;38.53
71194;BME280;58903;47.210;8.618;2023-07-02T08:05:28;94074.22;;;29.10;37.93
71194;BME280;58903;47.210;8.618;2023-07-02T08:07:57;94081.66;;;29.16;38.22
71194;BME280;58903;47.210;8.618;2023-07-02T08:10:37;94073.16;;;29.14;38.97
71194;BME280;58903;47.210;8.618;2023-07-02T08:13:05;94076.91;;;29.16;38.06
71194;BME280;58903;47.210;8.618;2023-07-02T08:15:39;94071.34;;;29.16;38.89
71194;BME280;58903;47.210;8.618;2023-07-02T08:18:25;94071.84;;;29.15;38.06
71194;BME280;58903;47.210;8.618;2023-07-02T08:21:02;94071.66;;;29.13;38.36
71194;BME280;58903;47.210;8.618;2023-07-02T08:23:44;94076.13;;;29.16;38.07
71194;BME280;58903;47.210;8.618;2023-07-02T08:26:13;94079.66;;;29.16;38.36
71194;BME280;58903;47.210;8.618;2023-07-02T08:28:50;94081.66;;;29.16;37.83
71194;BME280;58903;47.210;8.618;2023-07-02T08:31:40;94080.16;;;29.15;37.90
71194;BME280;58903;47.210;8.618;2023-07-02T08:34:06;94084.97;;;29.14;37.98
71194;BME280;58903;47.210;8.618;2023-07-02T08:36:58;94087.00;;;29.14;38.38
71194;BME280;58903;47.210;8.618;2023-07-02T08:39:53;94090.84;;;29.10;38.75
71194;BME280;58903;47.210;8.618;2023-07-02T08:42:19;94083.84;;;29.09;38.52
71194;BME280;58903;47.210;8.618;2023-07-02T08:44:47;94092.34;;;29.12;38.20
71194;BME280;58903;47.210;8.618;2023-07-02T08:47:15;94088.63;;;29.09;37.87
71194;BME280;58903;47.210;8.618;2023-07-02T08:49:53;94092.47;;;29.06;37.93
71194;BME280;58903;47.210;8.618;2023-07-02T08:52:19;94095.09;;;29.12;38.68
71194;BME280;58903;47.210;8.618;2023-07-02T08:54:49;94100.84;;;29.14;38.83
71194;BME280;58903;47.210;8.618;2023-07-02T08:57:16;94093.81;;;29.13;38.23
71194;BME280;58903;47.210;8.618;2023-07-02T08:59:54;94096.38;;;29.10;38.79
71194;BME280;58903;47.210;8.618;2023-07-02T09:02:41;94094.91;;;29.09;38.72
71194;BME280;58903;47.210;8.618;2023-07-02T09:05:24;94098.75;;;29.06;38.20
71194;BME280;58903;47.210;8.618;2023-07-02T09:07:51;94101.41;;;29.12;38.45
71194;BME280;58903;47.210;8.618;2023-07-02T09:17:10;94101.19;;;29.10;38.10
71194;BME280;58903;47.210;8.618;2023-07-02T09:19:52;94100.66;;;29.12;38.54
71194;BME280;58903;47.210;8.618;2023-07-02T09:22:40;94096.56;;;29.13;38.72
71194;BME280;58903;47.210;8.618;2023-07-02T09:25:21;94095.09;;;29.12;38.86
71194;BME280;58903;47.210;8.618;2023-07-02T09:30:56;94097.88;;;29.12;37.80
71194;BME280;58903;47.210;8.618;2023-07-02T09:34:00;94098.44;;;29.10;38.60
71194;BME280;58903;47.210;8.618;2023-07-02T09:36:51;94103.97;;;29.10;38.48
71194;BME280;58903;47.210;8.618;2023-07-02T09:39:30;94096.38;;;29.10;38.18
71194;BME280;58903;47.210;8.618;2023-07-02T09:42:18;94097.88;;;29.12;38.28
71194;BME280;58903;47.210;8.618;2023-07-02T09:45:06;94094.56;;;29.13;38.72
71194;BME280;58903;47.210;8.618;2023-07-02T09:47:59;94095.09;;;29.12;38.28
71194;BME280;58903;47.210;8.618;2023-07-02T09:53:34;94091.25;;;29.15;38.13
71194;BME280;58903;47.210;8.618;2023-07-02T09:59:22;94093.63;;;29.10;38.09
71194;BME280;58903;47.210;8.618;2023-07-02T10:01:48;94090.84;;;29.10;38.32
71194;BME280;58903;47.210;8.618;2023-07-02T10:04:17;94093.81;;;29.13;38.24
71194;BME280;58903;47.210;8.618;2023-07-02T10:09:19;94094.56;;;29.13;38.67
71194;BME280;58903;47.210;8.618;2023-07-02T10:11:46;94097.88;;;29.12;38.07
71194;BME280;58903;47.210;8.618;2023-07-02T10:14:12;94098.06;;;29.14;37.83
71194;BME280;58903;47.210;8.618;2023-07-02T10:16:57;94102.88;;;29.13;38.55
71194;BME280;58903;47.210;8.618;2023-07-02T10:19:31;94103.63;;;29.14;37.92
71194;BME280;58903;47.210;8.618;2023-07-02T10:22:24;94099.34;;;29.13;37.77
71194;BME280;58903;47.210;8.618;2023-07-02T10:25:02;94097.69;;;29.09;37.99
71194;BME280;58903;47.210;8.618;2023-07-02T10:27:46;94103.41;;;29.12;37.99
71194;BME280;58903;47.210;8.618;2023-07-02T10:30:36;94107.47;;;29.10;38.86
71194;BME280;58903;47.210;8.618;2023-07-02T10:33:11;94099.69;;;29.09;38.74
71194;BME280;58903;47.210;8.618;2023-07-02T10:35:38;94100.44;;;29.09;38.75
71194;BME280;58903;47.210;8.618;2023-07-02T10:38:05;94103.97;;;29.10;37.88
71194;BME280;58903;47.210;8.618;2023-07-02T10:40:32;94100.44;;;29.09;38.31
71194;BME280;58903;47.210;8.618;2023-07-02T10:43:00;94104.50;;;29.08;38.56
71194;BME280;58903;47.210;8.618;2023-07-02T10:45:34;94107.47;;;29.10;38.00
71194;BME280;58903;47.210;8.618;2023-07-02T10:48:14;94101.19;;;29.10;38.32
71194;BME280;58903;47.210;8.618;2023-07-02T10:50:51;94101.91;;;29.10;37.79
71194;BME280;58903;47.210;8.618;2023-07-02T10:53:19;94105.84;;;29.15;38.75
71194;BME280;58903;47.210;8.618;2023-07-02T10:55:52;94108.13;;;29.17;38.49
71194;BME280;58903;47.210;8.618;2023-07-02T10:58:23;94103.06;;;29.15;37.60
71194;BME280;58903;47.210;8.618;2023-07-02T11:00:52;94109.34;;;29.16;38.50
71194;BME280;58903;47.210;8.618;2023-07-02T11:03:20;94102.78;;;29.19;38.17
71194;BME280;58903;47.210;8.618;2023-07-02T11:05:50;94099.44;;;29.20;38.01
71194;BME280;58903;47.210;8.618;2023-07-02T11:08:17;94100.19;;;29.21;37.53
71194;BME280;58903;47.210;8.618;2023-07-02T11:10:43;94094.66;;;29.21;38.15
71194;BME280;58903;47.210;8.618;2023-07-02T11:13:18;94097.63;;;29.23;38.20
71194;BME280;58903;47.210;8.618;2023-07-02T11:15:46;94087.81;;;29.22;37.95
71194;BME280;58903;47.210;8.618;2023-07-02T11:18:18;94089.84;;;29.21;37.86
71194;BME280;58903;47.210;8.618;2023-07-02T11:20:48;94089.84;;;29.21;38.49
71194;BME280;58903;47.210;8.618;2023-07-02T11:26:01;94085.06;;;29.22;37.47
71194;BME280;58903;47.210;8.618;2023-07-02T11:28:32;94088.03;;;29.24;38.93
71194;BME280;58903;47.210;8.618;2023-07-02T11:31:06;94083.59;;;29.21;38.10
71194;BME280;58903;47.210;8.618;2023-07-02T11:33:38;94081.72;;;29.23;37.86
71194;BME280;58903;47.210;8.618;2023-07-02T11:36:20;94083.44;;;29.26;38.82
71194;BME280;58903;47.210;8.618;2023-07-02T11:38:56;94074.56;;;29.28;37.79
71194;BME280;58903;47.210;8.618;2023-07-02T11:41:22;94078.84;;;29.29;38.03
71194;BME280;58903;47.210;8.618;2023-07-02T11:44:00;94069.56;;;29.26;38.58
71194;BME280;58903;47.210;8.618;2023-07-02T11:47:00;94069.22;;;29.30;38.12
71194;BME280;58903;47.210;8.618;2023-07-02T11:49:30;94065.34;;;29.25;37.96
71194;BME280;58903;47.210;8.618;2023-07-02T11:51:58;94062.56;;;29.25;38.53
71194;BME280;58903;47.210;8.618;2023-07-02T11:54:51;94070.31;;;29.27;39.03
71194;BME280;58903;47.210;8.618;2023-07-02T11:57:20;94073.09;;;29.27;38.29
71194;BME280;58903;47.210;8.618;2023-07-02T11:59:56;94059.06;;;29.25;38.51
71194;BME280;58903;47.210;8.618;2023-07-02T12:02:28;94063.28;;;29.26;38.12
71194;BME280;58903;47.210;8.618;2023-07-02T12:05:05;94065.00;;;29.29;38.60
71194;BME280;58903;47.210;8.618;2023-07-02T12:07:50;94065.00;;;29.29;37.82
71194;BME280;58903;47.210;8.618;2023-07-02T12:10:36;94055.94;;;29.28;38.30
71194;BME280;58903;47.210;8.618;2023-07-02T12:13:03;94064.25;;;29.28;38.29
71194;BME280;58903;47.210;8.618;2023-07-02T12:15:29;94064.03;;;29.26;38.07
71194;BME280;58903;47.210;8.618;2023-07-02T12:18:14;94062.97;;;29.29;38.67
71194;BME280;58903;47.210;8.618;2023-07-02T12:20:40;94070.53;;;29.29;38.05
71194;BME280;58903;47.210;8.618;2023-07-02T12:23:07;94062.22;;;29.29;39.12
71194;BME280;58903;47.210;8.618;2023-07-02T12:25:36;94058.69;;;29.28;39.32
71194;BME280;58903;47.210;8.618;2023-07-02T12:28:08;94061.66;;;29.30;38.18
71194;BME280;58903;47.210;8.618;2023-07-02T12:30:37;94057.06;;;29.33;39.22
71194;BME280;58903;47.210;8.618;2023-07-02T12:33:04;94057.06;;;29.33;39.24
71194;BME280;58903;47.210;8.618;2023-07-02T12:35:38;94061.53;;;29.36;38.31
71194;BME280;58903;47.210;8.618;2023-07-02T12:38:09;94058.22;;;29.37;38.96
71194;BME280;58903;47.210;8.618;2023-07-02T12:40:35;94054.88;;;29.39;38.82
71194;BME280;58903;47.210;8.618;2023-07-02T12:43:25;94057.66;;;29.39;37.77
71194;BME280;58903;47.210;8.618;2023-07-02T12:45:55;94053.41;;;29.38;38.70
71194;BME280;58903;47.210;8.618;2023-07-02T12:48:42;94055.44;;;29.37;38.14
71194;BME280;58903;47.210;8.618;2023-07-02T12:51:12;94052.88;;;29.39;38.09
71194;BME280;58903;47.210;8.618;2023-07-02T12:53:40;94054.16;;;29.38;38.78
71194;BME280;58903;47.210;8.618;2023-07-02T12:56:06;94048.06;;;29.40;38.00
71194;BME280;58903;47.210;8.618;2023-07-02T12:58:39;94044.56;;;29.39;38.28
71194;BME280;58903;47.210;8.618;2023-07-02T13:01:13;94044.19;;;29.43;39.04
71194;BME280;58903;47.210;8.618;2023-07-02T13:03:47;94035.88;;;29.43;38.04
71194;BME280;58903;47.210;8.618;2023-07-02T13:06:15;94043.13;;;29.46;37.99
71194;BME280;58903;47.210;8.618;2023-07-02T13:08:42;94043.13;;;29.46;38.25
71194;BME280;58903;47.210;8.618;2023-07-02T13:11:16;94039.06;;;29.47;38.71
71194;BME280;58903;47.210;8.618;2023-07-02T13:13:42;94042.03;;;29.49;38.13
71194;BME280;58903;47.210;8.618;2023-07-02T13:16:17;94037.03;;;29.47;39.32
71194;BME280;58903;47.210;8.618;2023-07-02T13:18:45;94044.41;;;29.45;38.86
71194;BME280;58903;47.210;8.618;2023-07-02T13:21:11;94041.84;;;29.47;38.46
71194;BME280;58903;47.210;8.618;2023-07-02T13:23:38;94032.22;;;29.48;39.13
71194;BME280;58903;47.210;8.618;2023-07-02T13:26:04;94033.72;;;29.49;39.25
71194;BME280;58903;47.210;8.618;2023-07-02T13:28:30;94030.94;;;29.49;38.56
71194;BME280;58903;47.210;8.618;2023-07-02T13:30:58;94032.41;;;29.50;38.32
71194;BME280;58903;47.210;8.618;2023-07-02T13:33:28;94033.16;;;29.50;39.49
71194;BME280;58903;47.210;8.618;2023-07-02T13:35:57;94034.66;;;29.51;39.39
71194;BME280;58903;47.210;8.618;2023-07-02T13:38:23;94034.44;;;29.49;38.73
71194;BME280;58903;47.210;8.618;2023-07-02T13:40:51;94039.47;;;29.51;39.05
71194;BME280;58903;47.210;8.618;2023-07-02T13:43:17;94040.72;;;29.50;39.40
71194;BME280;58903;47.210;8.618;2023-07-02T13:45:49;94051.81;;;29.50;38.33
71194;BME280;58903;47.210;8.618;2023-07-02T13:48:15;94049.59;;;29.48;38.75
71194;BME280;58903;47.210;8.618;2023-07-02T13:50:41;94050.53;;;29.51;39.57
71194;BME280;58903;47.210;8.618;2023-07-02T13:53:08;94045.75;;;29.51;38.74
71194;BME280;58903;47.210;8.618;2023-07-02T13:55:34;94038.72;;;29.50;38.42
71194;BME280;58903;47.210;8.618;2023-07-02T13:58:06;94042.03;;;29.49;39.40
71194;BME280;58903;47.210;8.618;2023-07-02T14:00:52;94035.38;;;29.52;38.99
71194;BME280;58903;47.210;8.618;2023-07-02T14:03:22;94036.50;;;29.49;38.72